sensor_id;sensor_type;location;lat;lon;timestamp;temperature;humidity
55313;DHT22;46892;45.668;11.756;2022-12-07T00:01:31;1.80;86.70
55313;DHT22;46892;45.668;11.756;2022-12-07T00:04:00;1.90;86.70
55313;DHT22;46892;45.668;11.756;2022-12-07T00:06:31;1.90;86.50
55313;DHT22;46892;45.668;11.756;2022-12-07T00:08:57;1.90;85.70
55313;DHT22;46892;45.668;11.756;2022-12-07T00:11:23;1.80;85.70
55313;DHT22;46892;45.668;11.756;2022-12-07T00:13:54;1.80;86.60
55313;DHT22;46892;45.668;11.756;2022-12-07T00:16:20;1.80;86.50
55313;DHT22;46892;45.668;11.756;2022-12-07T00:18:46;1.80;86.30
55313;DHT22;46892;45.668;11.756;2022-12-07T00:21:23;1.80;86.80
55313;DHT22;46892;45.668;11.756;2022-12-07T00:23:51;1.80;87.20
55313;DHT22;46892;45.668;11.756;2022-12-07T00:26:25;1.80;86.80
55313;DHT22;46892;45.668;11.756;2022-12-07T00:28:53;1.90;86.60
55313;DHT22;46892;45.668;11.756;2022-12-07T00:31:21;1.80;86.50
55313;DHT22;46892;45.668;11.756;2022-12-07T00:33:46;1.80;86.80
55313;DHT22;46892;45.668;11.756;2022-12-07T00:36:15;1.90;87.50
55313;DHT22;46892;45.668;11.756;2022-12-07T00:38:41;2.00;87.10
55313;DHT22;46892;45.668;11.756;2022-12-07T00:41:13;2.20;86.40
55313;DHT22;46892;45.668;11.756;2022-12-07T00:43:40;2.20;85.40
55313;DHT22;46892;45.668;11.756;2022-12-07T00:46:06;1.90;84.60
55313;DHT22;46892;45.668;11.756;2022-12-07T00:48:32;1.80;84.10
55313;DHT22;46892;45.668;11.756;2022-12-07T00:50:59;1.80;85.50
55313;DHT22;46892;45.668;11.756;2022-12-07T00:53:25;1.70;86.10
55313;DHT22;46892;45.668;11.756;2022-12-07T00:55:50;1.70;86.50
55313;DHT22;46892;45.668;11.756;2022-12-07T00:58:18;1.70;86.90
55313;DHT22;46892;45.668;11.756;2022-12-07T01:00:44;1.70;87.00
55313;DHT22;46892;45.668;11.756;2022-12-07T01:03:12;1.80;86.00
55313;DHT22;46892;45.668;11.756;2022-12-07T01:05:39;1.80;86.20
55313;DHT22;46892;45.668;11.756;2022-12-07T01:08:06;1.70;85.80
55313;DHT22;46892;45.668;11.756;2022-12-07T01:10:32;1.70;86.40
55313;DHT22;46892;45.668;11.756;2022-12-07T01:12:58;1.80;85.90
55313;DHT22;46892;45.668;11.756;2022-12-07T01:15:25;1.80;86.70
55313;DHT22;46892;45.668;11.756;2022-12-07T01:17:51;2.00;87.70
55313;DHT22;46892;45.668;11.756;2022-12-07T01:20:17;1.90;86.20
55313;DHT22;46892;45.668;11.756;2022-12-07T01:25:10;2.30;83.40
55313;DHT22;46892;45.668;11.756;2022-12-07T01:27:36;2.10;83.10
55313;DHT22;46892;45.668;11.756;2022-12-07T01:30:04;1.60;85.10
55313;DHT22;46892;45.668;11.756;2022-12-07T01:32:32;2.30;84.30
55313;DHT22;46892;45.668;11.756;2022-12-07T01:34:58;2.00;84.30
55313;DHT22;46892;45.668;11.756;2022-12-07T01:37:24;1.70;86.50
55313;DHT22;46892;45.668;11.756;2022-12-07T01:39:51;1.50;86.10
55313;DHT22;46892;45.668;11.756;2022-12-07T01:42:17;1.40;86.40
55313;DHT22;46892;45.668;11.756;2022-12-07T01:47:49;1.30;86.40
55313;DHT22;46892;45.668;11.756;2022-12-07T01:50:16;1.30;86.50
55313;DHT22;46892;45.668;11.756;2022-12-07T01:52:42;1.30;87.60
55313;DHT22;46892;45.668;11.756;2022-12-07T01:55:11;1.40;87.90
55313;DHT22;46892;45.668;11.756;2022-12-07T01:57:42;1.30;86.80
55313;DHT22;46892;45.668;11.756;2022-12-07T02:00:09;1.30;86.70
55313;DHT22;46892;45.668;11.756;2022-12-07T02:02:57;1.20;86.40
55313;DHT22;46892;45.668;11.756;2022-12-07T02:05:26;1.30;88.30
55313;DHT22;46892;45.668;11.756;2022-12-07T02:07:55;1.10;85.60
55313;DHT22;46892;45.668;11.756;2022-12-07T02:10:26;1.70;85.90
55313;DHT22;46892;45.668;11.756;2022-12-07T02:13:14;1.30;86.00
55313;DHT22;46892;45.668;11.756;2022-12-07T02:15:54;1.20;86.70
55313;DHT22;46892;45.668;11.756;2022-12-07T02:21:20;1.30;85.60
55313;DHT22;46892;45.668;11.756;2022-12-07T02:29:23;1.40;86.70
55313;DHT22;46892;45.668;11.756;2022-12-07T02:34:50;1.20;86.50
55313;DHT22;46892;45.668;11.756;2022-12-07T02:37:45;1.30;87.10
55313;DHT22;46892;45.668;11.756;2022-12-07T02:40:38;1.50;88.20
55313;DHT22;46892;45.668;11.756;2022-12-07T02:45:51;2.00;86.40
55313;DHT22;46892;45.668;11.756;2022-12-07T02:48:18;2.00;85.50
55313;DHT22;46892;45.668;11.756;2022-12-07T02:50:49;1.90;85.90
55313;DHT22;46892;45.668;11.756;2022-12-07T02:53:47;1.90;85.40
55313;DHT22;46892;45.668;11.756;2022-12-07T03:18:11;2.00;86.90
55313;DHT22;46892;45.668;11.756;2022-12-07T03:20:39;2.00;85.60
55313;DHT22;46892;45.668;11.756;2022-12-07T03:23:08;1.80;85.10
55313;DHT22;46892;45.668;11.756;2022-12-07T03:25:40;1.70;85.20
55313;DHT22;46892;45.668;11.756;2022-12-07T03:28:07;1.50;85.90
55313;DHT22;46892;45.668;11.756;2022-12-07T03:30:49;1.30;86.50
55313;DHT22;46892;45.668;11.756;2022-12-07T03:33:24;1.30;87.00
55313;DHT22;46892;45.668;11.756;2022-12-07T03:36:00;1.20;87.40
55313;DHT22;46892;45.668;11.756;2022-12-07T03:38:33;1.30;87.60
55313;DHT22;46892;45.668;11.756;2022-12-07T03:41:11;1.30;88.00
55313;DHT22;46892;45.668;11.756;2022-12-07T03:43:40;1.30;88.10
55313;DHT22;46892;45.668;11.756;2022-12-07T03:49:21;1.40;87.80
55313;DHT22;46892;45.668;11.756;2022-12-07T03:57:14;1.50;88.30
55313;DHT22;46892;45.668;11.756;2022-12-07T03:59:41;1.50;88.10
55313;DHT22;46892;45.668;11.756;2022-12-07T04:02:11;1.50;88.20
55313;DHT22;46892;45.668;11.756;2022-12-07T04:04:38;1.50;88.20
55313;DHT22;46892;45.668;11.756;2022-12-07T04:07:04;1.40;87.50
55313;DHT22;46892;45.668;11.756;2022-12-07T04:09:30;1.30;87.50
55313;DHT22;46892;45.668;11.756;2022-12-07T04:11:55;1.30;87.80
55313;DHT22;46892;45.668;11.756;2022-12-07T04:14:21;1.30;88.00
55313;DHT22;46892;45.668;11.756;2022-12-07T04:16:52;1.30;88.10
55313;DHT22;46892;45.668;11.756;2022-12-07T04:19:20;1.40;87.70
55313;DHT22;46892;45.668;11.756;2022-12-07T04:21:47;1.50;87.40
55313;DHT22;46892;45.668;11.756;2022-12-07T04:24:14;1.50;87.70
55313;DHT22;46892;45.668;11.756;2022-12-07T04:26:40;1.50;87.80
55313;DHT22;46892;45.668;11.756;2022-12-07T04:29:07;1.60;87.90
55313;DHT22;46892;45.668;11.756;2022-12-07T04:31:33;1.70;87.70
55313;DHT22;46892;45.668;11.756;2022-12-07T04:33:58;1.70;86.70
55313;DHT22;46892;45.668;11.756;2022-12-07T04:36:24;1.70;85.90
55313;DHT22;46892;45.668;11.756;2022-12-07T04:38:50;1.60;85.40
55313;DHT22;46892;45.668;11.756;2022-12-07T04:41:17;1.50;84.90
55313;DHT22;46892;45.668;11.756;2022-12-07T04:43:43;1.50;85.40
55313;DHT22;46892;45.668;11.756;2022-12-07T04:46:09;1.40;85.60
55313;DHT22;46892;45.668;11.756;2022-12-07T04:48:34;1.30;85.60
55313;DHT22;46892;45.668;11.756;2022-12-07T04:51:01;1.30;85.90
55313;DHT22;46892;45.668;11.756;2022-12-07T04:53:27;1.30;85.80
55313;DHT22;46892;45.668;11.756;2022-12-07T04:55:53;1.30;86.00
55313;DHT22;46892;45.668;11.756;2022-12-07T04:58:18;1.30;86.60
55313;DHT22;46892;45.668;11.756;2022-12-07T05:00:44;1.40;86.50
55313;DHT22;46892;45.668;11.756;2022-12-07T05:03:10;1.40;86.50
55313;DHT22;46892;45.668;11.756;2022-12-07T05:05:35;1.50;86.50
55313;DHT22;46892;45.668;11.756;2022-12-07T05:08:01;1.40;86.40
55313;DHT22;46892;45.668;11.756;2022-12-07T05:10:27;1.50;86.30
55313;DHT22;46892;45.668;11.756;2022-12-07T05:12:52;1.40;86.30
55313;DHT22;46892;45.668;11.756;2022-12-07T05:15:18;1.40;86.50
55313;DHT22;46892;45.668;11.756;2022-12-07T05:17:43;1.30;86.60
55313;DHT22;46892;45.668;11.756;2022-12-07T05:20:10;1.40;86.90
55313;DHT22;46892;45.668;11.756;2022-12-07T05:22:35;1.40;87.00
55313;DHT22;46892;45.668;11.756;2022-12-07T05:25:01;1.50;86.70
55313;DHT22;46892;45.668;11.756;2022-12-07T05:27:27;1.50;86.50
55313;DHT22;46892;45.668;11.756;2022-12-07T05:29:52;1.50;86.00
55313;DHT22;46892;45.668;11.756;2022-12-07T05:32:18;1.40;86.20
55313;DHT22;46892;45.668;11.756;2022-12-07T05:34:44;1.40;86.20
55313;DHT22;46892;45.668;11.756;2022-12-07T05:37:09;1.40;86.50
55313;DHT22;46892;45.668;11.756;2022-12-07T05:39:35;1.40;86.50
55313;DHT22;46892;45.668;11.756;2022-12-07T05:42:03;1.50;86.80
55313;DHT22;46892;45.668;11.756;2022-12-07T05:44:47;1.60;86.70
55313;DHT22;46892;45.668;11.756;2022-12-07T05:47:14;1.60;85.60
55313;DHT22;46892;45.668;11.756;2022-12-07T05:49:40;1.60;85.20
55313;DHT22;46892;45.668;11.756;2022-12-07T05:52:06;1.50;85.60
55313;DHT22;46892;45.668;11.756;2022-12-07T05:54:32;1.30;84.60
55313;DHT22;46892;45.668;11.756;2022-12-07T05:56:58;1.30;85.00
55313;DHT22;46892;45.668;11.756;2022-12-07T05:59:24;1.50;86.30
55313;DHT22;46892;45.668;11.756;2022-12-07T06:01:53;1.50;84.90
55313;DHT22;46892;45.668;11.756;2022-12-07T06:04:21;1.40;84.00
55313;DHT22;46892;45.668;11.756;2022-12-07T06:06:47;1.30;84.20
55313;DHT22;46892;45.668;11.756;2022-12-07T06:09:14;1.30;85.00
55313;DHT22;46892;45.668;11.756;2022-12-07T06:11:40;1.30;85.30
55313;DHT22;46892;45.668;11.756;2022-12-07T06:14:25;1.30;86.30
55313;DHT22;46892;45.668;11.756;2022-12-07T06:16:51;1.30;86.50
55313;DHT22;46892;45.668;11.756;2022-12-07T06:19:17;1.30;86.20
55313;DHT22;46892;45.668;11.756;2022-12-07T06:21:42;1.40;86.50
55313;DHT22;46892;45.668;11.756;2022-12-07T06:24:11;1.40;85.90
55313;DHT22;46892;45.668;11.756;2022-12-07T06:26:37;1.40;85.10
55313;DHT22;46892;45.668;11.756;2022-12-07T06:29:03;1.40;85.20
55313;DHT22;46892;45.668;11.756;2022-12-07T06:31:29;1.40;85.60
55313;DHT22;46892;45.668;11.756;2022-12-07T06:33:59;1.50;86.10
55313;DHT22;46892;45.668;11.756;2022-12-07T06:36:25;1.80;85.20
55313;DHT22;46892;45.668;11.756;2022-12-07T06:38:50;2.00;83.90
55313;DHT22;46892;45.668;11.756;2022-12-07T06:41:16;2.30;83.60
55313;DHT22;46892;45.668;11.756;2022-12-07T06:43:42;2.40;83.00
55313;DHT22;46892;45.668;11.756;2022-12-07T06:46:07;2.70;82.00
55313;DHT22;46892;45.668;11.756;2022-12-07T06:48:33;2.80;81.70
55313;DHT22;46892;45.668;11.756;2022-12-07T06:50:59;2.80;81.50
55313;DHT22;46892;45.668;11.756;2022-12-07T06:53:25;3.00;81.20
55313;DHT22;46892;45.668;11.756;2022-12-07T06:55:50;3.00;80.80
55313;DHT22;46892;45.668;11.756;2022-12-07T06:58:17;3.00;80.90
55313;DHT22;46892;45.668;11.756;2022-12-07T07:00:43;3.20;80.60
55313;DHT22;46892;45.668;11.756;2022-12-07T07:03:09;3.30;80.10
55313;DHT22;46892;45.668;11.756;2022-12-07T07:05:35;3.20;80.20
55313;DHT22;46892;45.668;11.756;2022-12-07T07:08:01;3.30;80.80
55313;DHT22;46892;45.668;11.756;2022-12-07T07:10:28;3.30;80.80
55313;DHT22;46892;45.668;11.756;2022-12-07T07:12:53;3.40;80.80
55313;DHT22;46892;45.668;11.756;2022-12-07T07:15:19;3.50;80.60
55313;DHT22;46892;45.668;11.756;2022-12-07T07:17:45;3.50;79.60
55313;DHT22;46892;45.668;11.756;2022-12-07T07:20:11;3.60;79.30
55313;DHT22;46892;45.668;11.756;2022-12-07T07:22:37;3.70;79.20
55313;DHT22;46892;45.668;11.756;2022-12-07T07:25:02;3.80;78.80
55313;DHT22;46892;45.668;11.756;2022-12-07T07:27:28;3.90;78.70
55313;DHT22;46892;45.668;11.756;2022-12-07T07:29:54;4.00;77.70
55313;DHT22;46892;45.668;11.756;2022-12-07T07:32:19;4.20;77.20
55313;DHT22;46892;45.668;11.756;2022-12-07T07:34:47;4.20;77.30
55313;DHT22;46892;45.668;11.756;2022-12-07T07:37:12;4.30;77.30
55313;DHT22;46892;45.668;11.756;2022-12-07T07:39:38;4.30;77.50
55313;DHT22;46892;45.668;11.756;2022-12-07T07:42:04;4.30;77.50
55313;DHT22;46892;45.668;11.756;2022-12-07T07:44:30;4.30;77.60
55313;DHT22;46892;45.668;11.756;2022-12-07T07:46:56;4.30;77.40
55313;DHT22;46892;45.668;11.756;2022-12-07T07:49:22;4.50;77.00
55313;DHT22;46892;45.668;11.756;2022-12-07T07:51:47;4.50;76.50
55313;DHT22;46892;45.668;11.756;2022-12-07T07:54:13;4.60;76.30
55313;DHT22;46892;45.668;11.756;2022-12-07T07:56:39;4.80;75.40
55313;DHT22;46892;45.668;11.756;2022-12-07T07:59:05;4.80;76.00
55313;DHT22;46892;45.668;11.756;2022-12-07T08:01:30;4.90;75.50
55313;DHT22;46892;45.668;11.756;2022-12-07T08:03:56;5.10;75.50
55313;DHT22;46892;45.668;11.756;2022-12-07T08:06:21;5.20;75.40
55313;DHT22;46892;45.668;11.756;2022-12-07T08:08:47;5.20;74.70
55313;DHT22;46892;45.668;11.756;2022-12-07T08:11:13;5.30;76.70
55313;DHT22;46892;45.668;11.756;2022-12-07T08:13:38;5.50;80.80
55313;DHT22;46892;45.668;11.756;2022-12-07T08:16:07;5.70;79.30
55313;DHT22;46892;45.668;11.756;2022-12-07T08:18:38;5.90;79.40
55313;DHT22;46892;45.668;11.756;2022-12-07T08:21:05;6.00;76.30
55313;DHT22;46892;45.668;11.756;2022-12-07T08:23:32;5.80;76.50
55313;DHT22;46892;45.668;11.756;2022-12-07T08:26:06;5.80;77.00
55313;DHT22;46892;45.668;11.756;2022-12-07T08:28:32;5.80;79.50
55313;DHT22;46892;45.668;11.756;2022-12-07T08:31:10;6.00;79.30
55313;DHT22;46892;45.668;11.756;2022-12-07T08:33:37;6.20;80.10
55313;DHT22;46892;45.668;11.756;2022-12-07T08:36:05;6.30;78.10
55313;DHT22;46892;45.668;11.756;2022-12-07T08:38:31;6.20;77.40
55313;DHT22;46892;45.668;11.756;2022-12-07T08:40:57;6.00;77.60
55313;DHT22;46892;45.668;11.756;2022-12-07T08:43:24;5.80;77.30
55313;DHT22;46892;45.668;11.756;2022-12-07T08:48:25;5.80;77.90
55313;DHT22;46892;45.668;11.756;2022-12-07T08:50:51;5.80;77.60
55313;DHT22;46892;45.668;11.756;2022-12-07T08:53:17;5.80;78.10
55313;DHT22;46892;45.668;11.756;2022-12-07T08:55:45;5.80;78.20
55313;DHT22;46892;45.668;11.756;2022-12-07T08:58:11;5.90;78.40
55313;DHT22;46892;45.668;11.756;2022-12-07T09:00:37;6.00;77.70
55313;DHT22;46892;45.668;11.756;2022-12-07T09:03:03;6.10;78.10
55313;DHT22;46892;45.668;11.756;2022-12-07T09:05:28;6.30;82.90
55313;DHT22;46892;45.668;11.756;2022-12-07T09:08:00;6.60;82.30
55313;DHT22;46892;45.668;11.756;2022-12-07T09:10:26;6.80;82.10
55313;DHT22;46892;45.668;11.756;2022-12-07T09:12:52;7.10;82.00
55313;DHT22;46892;45.668;11.756;2022-12-07T09:15:17;7.40;81.20
55313;DHT22;46892;45.668;11.756;2022-12-07T09:17:43;7.70;80.60
55313;DHT22;46892;45.668;11.756;2022-12-07T09:20:09;7.90;80.70
55313;DHT22;46892;45.668;11.756;2022-12-07T09:22:35;8.10;79.10
55313;DHT22;46892;45.668;11.756;2022-12-07T09:25:02;8.20;80.30
55313;DHT22;46892;45.668;11.756;2022-12-07T09:27:28;8.30;80.10
55313;DHT22;46892;45.668;11.756;2022-12-07T09:29:54;8.30;78.70
55313;DHT22;46892;45.668;11.756;2022-12-07T09:32:20;8.20;78.70
55313;DHT22;46892;45.668;11.756;2022-12-07T09:34:45;8.10;78.10
55313;DHT22;46892;45.668;11.756;2022-12-07T09:37:11;8.10;79.70
55313;DHT22;46892;45.668;11.756;2022-12-07T09:39:40;8.10;79.70
55313;DHT22;46892;45.668;11.756;2022-12-07T09:42:07;8.10;79.50
55313;DHT22;46892;45.668;11.756;2022-12-07T09:44:34;7.90;76.90
55313;DHT22;46892;45.668;11.756;2022-12-07T09:47:01;7.80;79.40
55313;DHT22;46892;45.668;11.756;2022-12-07T09:49:31;7.80;80.40
55313;DHT22;46892;45.668;11.756;2022-12-07T09:52:47;7.80;81.30
55313;DHT22;46892;45.668;11.756;2022-12-07T09:54:49;7.80;78.20
55313;DHT22;46892;45.668;11.756;2022-12-07T09:57:16;7.60;77.00
55313;DHT22;46892;45.668;11.756;2022-12-07T09:59:42;7.60;77.70
55313;DHT22;46892;45.668;11.756;2022-12-07T10:02:44;7.50;78.60
55313;DHT22;46892;45.668;11.756;2022-12-07T10:05:18;7.50;80.30
55313;DHT22;46892;45.668;11.756;2022-12-07T10:07:45;7.50;80.50
55313;DHT22;46892;45.668;11.756;2022-12-07T10:10:17;7.50;80.60
55313;DHT22;46892;45.668;11.756;2022-12-07T10:12:56;7.50;81.40
55313;DHT22;46892;45.668;11.756;2022-12-07T10:15:22;7.60;81.80
55313;DHT22;46892;45.668;11.756;2022-12-07T10:17:50;7.60;81.70
55313;DHT22;46892;45.668;11.756;2022-12-07T10:20:27;7.70;82.20
55313;DHT22;46892;45.668;11.756;2022-12-07T10:23:04;7.80;82.30
55313;DHT22;46892;45.668;11.756;2022-12-07T10:25:35;7.90;81.80
55313;DHT22;46892;45.668;11.756;2022-12-07T10:30:52;8.00;80.40
55313;DHT22;46892;45.668;11.756;2022-12-07T10:33:40;8.10;79.90
55313;DHT22;46892;45.668;11.756;2022-12-07T10:39:30;8.20;79.00
55313;DHT22;46892;45.668;11.756;2022-12-07T10:41:59;8.20;79.50
55313;DHT22;46892;45.668;11.756;2022-12-07T10:44:27;8.30;78.60
55313;DHT22;46892;45.668;11.756;2022-12-07T11:00:24;8.50;73.70
55313;DHT22;46892;45.668;11.756;2022-12-07T11:16:20;8.90;75.80
55313;DHT22;46892;45.668;11.756;2022-12-07T11:19:12;9.00;76.90
55313;DHT22;46892;45.668;11.756;2022-12-07T11:21:57;9.00;76.90
55313;DHT22;46892;45.668;11.756;2022-12-07T11:25:02;9.00;77.00
55313;DHT22;46892;45.668;11.756;2022-12-07T11:38:18;9.30;74.40
55313;DHT22;46892;45.668;11.756;2022-12-07T11:40:48;9.30;74.80
55313;DHT22;46892;45.668;11.756;2022-12-07T11:43:26;9.30;74.60
55313;DHT22;46892;45.668;11.756;2022-12-07T11:46:13;9.30;74.30
55313;DHT22;46892;45.668;11.756;2022-12-07T11:49:19;9.30;74.10
55313;DHT22;46892;45.668;11.756;2022-12-07T11:51:37;9.30;74.30
55313;DHT22;46892;45.668;11.756;2022-12-07T11:54:12;9.30;73.60
55313;DHT22;46892;45.668;11.756;2022-12-07T11:56:40;9.30;73.10
55313;DHT22;46892;45.668;11.756;2022-12-07T12:04:25;9.20;71.40
55313;DHT22;46892;45.668;11.756;2022-12-07T12:06:52;9.20;72.20
55313;DHT22;46892;45.668;11.756;2022-12-07T12:09:26;9.20;72.60
55313;DHT22;46892;45.668;11.756;2022-12-07T12:20:15;9.30;71.30
55313;DHT22;46892;45.668;11.756;2022-12-07T12:22:46;9.50;72.10
55313;DHT22;46892;45.668;11.756;2022-12-07T12:25:28;9.50;71.70
55313;DHT22;46892;45.668;11.756;2022-12-07T12:27:57;9.50;70.80
55313;DHT22;46892;45.668;11.756;2022-12-07T12:30:40;9.60;69.40
55313;DHT22;46892;45.668;11.756;2022-12-07T12:33:34;9.60;68.60
55313;DHT22;46892;45.668;11.756;2022-12-07T12:39:08;9.70;67.30
55313;DHT22;46892;45.668;11.756;2022-12-07T12:46:54;9.50;68.30
55313;DHT22;46892;45.668;11.756;2022-12-07T12:51:49;9.60;67.10
55313;DHT22;46892;45.668;11.756;2022-12-07T12:54:26;9.50;66.80
55313;DHT22;46892;45.668;11.756;2022-12-07T12:59:36;9.50;70.00
55313;DHT22;46892;45.668;11.756;2022-12-07T13:02:25;9.60;71.30
55313;DHT22;46892;45.668;11.756;2022-12-07T13:17:59;9.80;67.00
55313;DHT22;46892;45.668;11.756;2022-12-07T13:23:38;9.80;66.20
55313;DHT22;46892;45.668;11.756;2022-12-07T13:31:39;9.80;68.10
55313;DHT22;46892;45.668;11.756;2022-12-07T13:34:35;9.80;67.90
55313;DHT22;46892;45.668;11.756;2022-12-07T13:39:56;9.80;68.40
55313;DHT22;46892;45.668;11.756;2022-12-07T13:42:31;9.80;66.30
55313;DHT22;46892;45.668;11.756;2022-12-07T13:44:58;9.80;65.40
55313;DHT22;46892;45.668;11.756;2022-12-07T13:49:53;9.80;66.50
55313;DHT22;46892;45.668;11.756;2022-12-07T13:52:30;9.80;67.20
55313;DHT22;46892;45.668;11.756;2022-12-07T13:57:30;9.80;66.10
55313;DHT22;46892;45.668;11.756;2022-12-07T13:59:57;9.80;65.50
55313;DHT22;46892;45.668;11.756;2022-12-07T14:02:29;9.80;66.60
55313;DHT22;46892;45.668;11.756;2022-12-07T14:05:16;9.80;67.80
55313;DHT22;46892;45.668;11.756;2022-12-07T14:07:57;9.80;69.20
55313;DHT22;46892;45.668;11.756;2022-12-07T14:12:53;9.70;69.00
55313;DHT22;46892;45.668;11.756;2022-12-07T14:15:32;9.60;68.80
55313;DHT22;46892;45.668;11.756;2022-12-07T14:17:59;9.60;69.10
55313;DHT22;46892;45.668;11.756;2022-12-07T14:22:55;9.50;69.20
55313;DHT22;46892;45.668;11.756;2022-12-07T14:25:24;9.50;68.60
55313;DHT22;46892;45.668;11.756;2022-12-07T14:28:01;9.40;67.90
55313;DHT22;46892;45.668;11.756;2022-12-07T14:30:31;9.50;67.30
55313;DHT22;46892;45.668;11.756;2022-12-07T14:32:58;9.40;67.30
55313;DHT22;46892;45.668;11.756;2022-12-07T14:35:25;9.50;68.50
55313;DHT22;46892;45.668;11.756;2022-12-07T14:37:51;9.40;69.00
55313;DHT22;46892;45.668;11.756;2022-12-07T14:40:23;9.40;68.90
55313;DHT22;46892;45.668;11.756;2022-12-07T14:42:52;9.30;67.80
55313;DHT22;46892;45.668;11.756;2022-12-07T14:45:21;9.30;67.90
55313;DHT22;46892;45.668;11.756;2022-12-07T14:47:47;9.30;68.30
55313;DHT22;46892;45.668;11.756;2022-12-07T14:50:16;9.30;68.50
55313;DHT22;46892;45.668;11.756;2022-12-07T14:52:43;9.30;68.20
55313;DHT22;46892;45.668;11.756;2022-12-07T14:55:17;9.20;68.80
55313;DHT22;46892;45.668;11.756;2022-12-07T14:57:45;9.20;71.70
55313;DHT22;46892;45.668;11.756;2022-12-07T15:00:16;9.10;72.80
55313;DHT22;46892;45.668;11.756;2022-12-07T15:02:43;9.00;73.60
55313;DHT22;46892;45.668;11.756;2022-12-07T15:05:09;9.00;74.40
55313;DHT22;46892;45.668;11.756;2022-12-07T15:07:35;8.90;75.10
55313;DHT22;46892;45.668;11.756;2022-12-07T15:10:01;8.80;75.50
55313;DHT22;46892;45.668;11.756;2022-12-07T15:12:27;8.80;76.00
55313;DHT22;46892;45.668;11.756;2022-12-07T15:14:53;8.70;76.40
55313;DHT22;46892;45.668;11.756;2022-12-07T15:17:19;8.70;76.60
55313;DHT22;46892;45.668;11.756;2022-12-07T15:19:45;8.50;76.80
55313;DHT22;46892;45.668;11.756;2022-12-07T15:22:10;8.40;76.90
55313;DHT22;46892;45.668;11.756;2022-12-07T15:24:36;8.30;77.00
55313;DHT22;46892;45.668;11.756;2022-12-07T15:27:02;8.30;77.30
55313;DHT22;46892;45.668;11.756;2022-12-07T15:29:29;8.10;77.50
55313;DHT22;46892;45.668;11.756;2022-12-07T15:31:54;8.10;77.60
55313;DHT22;46892;45.668;11.756;2022-12-07T15:34:20;8.00;77.80
55313;DHT22;46892;45.668;11.756;2022-12-07T15:36:46;7.90;77.80
55313;DHT22;46892;45.668;11.756;2022-12-07T15:39:12;8.00;77.90
55313;DHT22;46892;45.668;11.756;2022-12-07T15:41:38;8.00;77.30
55313;DHT22;46892;45.668;11.756;2022-12-07T15:44:04;8.00;77.60
55313;DHT22;46892;45.668;11.756;2022-12-07T15:46:48;8.00;77.00
55313;DHT22;46892;45.668;11.756;2022-12-07T15:49:16;8.00;76.40
55313;DHT22;46892;45.668;11.756;2022-12-07T15:51:42;8.00;76.30
55313;DHT22;46892;45.668;11.756;2022-12-07T15:54:26;8.00;76.30
55313;DHT22;46892;45.668;11.756;2022-12-07T15:56:52;7.90;76.30
55313;DHT22;46892;45.668;11.756;2022-12-07T15:59:18;7.80;76.60
55313;DHT22;46892;45.668;11.756;2022-12-07T16:01:44;7.60;76.70
55313;DHT22;46892;45.668;11.756;2022-12-07T16:04:09;7.50;76.20
55313;DHT22;46892;45.668;11.756;2022-12-07T16:06:35;7.40;75.90
55313;DHT22;46892;45.668;11.756;2022-12-07T16:09:01;7.40;75.10
55313;DHT22;46892;45.668;11.756;2022-12-07T16:11:27;7.30;74.00
55313;DHT22;46892;45.668;11.756;2022-12-07T16:13:53;7.20;73.60
55313;DHT22;46892;45.668;11.756;2022-12-07T16:16:19;7.10;74.00
55313;DHT22;46892;45.668;11.756;2022-12-07T16:18:48;6.90;74.50
55313;DHT22;46892;45.668;11.756;2022-12-07T16:21:14;6.70;74.80
55313;DHT22;46892;45.668;11.756;2022-12-07T16:23:40;6.70;75.40
55313;DHT22;46892;45.668;11.756;2022-12-07T16:26:15;6.60;75.30
55313;DHT22;46892;45.668;11.756;2022-12-07T16:28:42;6.50;75.40
55313;DHT22;46892;45.668;11.756;2022-12-07T16:31:11;6.50;75.30
55313;DHT22;46892;45.668;11.756;2022-12-07T16:33:38;6.50;75.60
55313;DHT22;46892;45.668;11.756;2022-12-07T16:36:06;6.30;75.50
55313;DHT22;46892;45.668;11.756;2022-12-07T16:38:32;6.20;75.50
55313;DHT22;46892;45.668;11.756;2022-12-07T16:40:58;6.00;74.40
55313;DHT22;46892;45.668;11.756;2022-12-07T16:43:24;6.00;74.40
55313;DHT22;46892;45.668;11.756;2022-12-07T16:45:50;6.00;74.30
55313;DHT22;46892;45.668;11.756;2022-12-07T16:48:16;6.00;75.20
55313;DHT22;46892;45.668;11.756;2022-12-07T16:50:42;6.00;75.20
55313;DHT22;46892;45.668;11.756;2022-12-07T16:53:10;5.90;76.30
55313;DHT22;46892;45.668;11.756;2022-12-07T16:55:37;5.90;76.00
55313;DHT22;46892;45.668;11.756;2022-12-07T16:58:03;5.80;75.50
55313;DHT22;46892;45.668;11.756;2022-12-07T17:00:29;5.80;75.80
55313;DHT22;46892;45.668;11.756;2022-12-07T17:02:55;5.70;76.20
55313;DHT22;46892;45.668;11.756;2022-12-07T17:05:20;5.70;75.60
55313;DHT22;46892;45.668;11.756;2022-12-07T17:07:46;5.70;75.00
55313;DHT22;46892;45.668;11.756;2022-12-07T17:10:12;5.80;74.00
55313;DHT22;46892;45.668;11.756;2022-12-07T17:12:38;5.80;74.10
55313;DHT22;46892;45.668;11.756;2022-12-07T17:15:03;5.80;76.30
55313;DHT22;46892;45.668;11.756;2022-12-07T17:17:45;5.80;76.90
55313;DHT22;46892;45.668;11.756;2022-12-07T17:20:11;5.70;76.90
55313;DHT22;46892;45.668;11.756;2022-12-07T17:22:37;5.60;78.20
55313;DHT22;46892;45.668;11.756;2022-12-07T17:25:04;5.50;79.40
55313;DHT22;46892;45.668;11.756;2022-12-07T17:27:30;5.50;78.50
55313;DHT22;46892;45.668;11.756;2022-12-07T17:29:56;5.50;78.10
55313;DHT22;46892;45.668;11.756;2022-12-07T17:32:22;5.40;77.60
55313;DHT22;46892;45.668;11.756;2022-12-07T17:34:48;5.30;77.20
55313;DHT22;46892;45.668;11.756;2022-12-07T17:37:13;5.20;77.40
55313;DHT22;46892;45.668;11.756;2022-12-07T17:39:39;5.00;77.70
55313;DHT22;46892;45.668;11.756;2022-12-07T17:42:05;5.00;78.10
55313;DHT22;46892;45.668;11.756;2022-12-07T17:44:49;4.90;78.30
55313;DHT22;46892;45.668;11.756;2022-12-07T17:47:15;4.80;78.40
55313;DHT22;46892;45.668;11.756;2022-12-07T17:49:42;4.80;78.60
55313;DHT22;46892;45.668;11.756;2022-12-07T17:52:11;4.80;78.60
55313;DHT22;46892;45.668;11.756;2022-12-07T17:54:55;4.80;78.70
55313;DHT22;46892;45.668;11.756;2022-12-07T17:57:21;4.70;79.60
55313;DHT22;46892;45.668;11.756;2022-12-07T17:59:47;4.70;79.90
55313;DHT22;46892;45.668;11.756;2022-12-07T18:02:13;4.70;80.00
55313;DHT22;46892;45.668;11.756;2022-12-07T18:04:38;4.70;79.70
55313;DHT22;46892;45.668;11.756;2022-12-07T18:07:06;4.80;78.80
55313;DHT22;46892;45.668;11.756;2022-12-07T18:09:32;4.70;78.90
55313;DHT22;46892;45.668;11.756;2022-12-07T18:11:58;4.60;79.40
55313;DHT22;46892;45.668;11.756;2022-12-07T18:14:23;4.60;79.50
55313;DHT22;46892;45.668;11.756;2022-12-07T18:16:49;4.60;79.70
55313;DHT22;46892;45.668;11.756;2022-12-07T18:19:15;4.70;79.30